aviador You're here:

GMMZ Decoded Metar

OUARZAZATE in MOROCCO
Report Time2017-12-17 00:00:00
UTC Time2017-12-17 00:23:45
Flight Rules vfr VFR
Wind240° at 07 kt
W.Decomp.*RWY 30: 4.0 kt HW 5.7 kt LCW
W.Rank240° ranks 6
Current wind is below 240° avg. (7.3)
Visibility9999 m
Phenomena:N/A
Clouds:Few 030 Hf
Expected CloudBase > 3,600 ft AGL from Temp-Dew spread
CeilingNone
Temp11°C (ISA +3)
Dew Point02°C (54% RH)
AAT6.8°C
QNH1018 hPa
Density Alt4,081 ft
Elevation3,740 ft
Report Wrong Elevation
Raw Report
GMMZ 170000Z 24007KT 9999 FEW030 11/02 Q1018 NOSIG=

Extra information for GMMZ:More info

Metar Taf Metar & Taf Last 4 Metars F.Rules Stats Wind Profile Meteogram Temp Stats Airport Information Weather charts Add Link Nearby VenuesMetar ALERT Operation Metar Decoded Social comments